Time;durP1;ratioP1;P1;durP2;ratioP2;P2;SDS_P1;SDS_P2;PMS_P1;PMS_P2;Temp;Humidity;BMP_temperature;BMP_pressure;BME280_temperature;BME280_humidity;BME280_pressure;Samples;Min_cycle;Max_cycle;Signal;HPM_P1;HPM_P2
2022/05/19 00:01:28;;;;;;;3.40;2.30;;;16.00;99.90;;;;;;5097116;28;20044;-73
2022/05/19 00:03:55;;;;;;;4.25;2.10;;;16.00;99.90;;;;;;5096632;28;20051;-73
2022/05/19 00:06:22;;;;;;;5.70;2.45;;;16.00;99.90;;;;;;5097114;28;20048;-74
2022/05/19 00:08:48;;;;;;;4.88;1.98;;;16.00;99.90;;;;;;5079526;28;20380;-73
2022/05/19 00:11:16;;;;;;;5.25;2.65;;;16.00;99.90;;;;;;5096170;28;20048;-74
2022/05/19 00:13:43;;;;;;;5.40;2.72;;;16.00;99.90;;;;;;5094933;28;20048;-74
2022/05/19 00:16:10;;;;;;;8.27;3.92;;;16.00;99.90;;;;;;5095977;28;20051;-75
2022/05/19 00:18:37;;;;;;;3.30;2.47;;;16.00;99.90;;;;;;5096046;28;20036;-74
2022/05/19 00:21:05;;;;;;;12.30;3.85;;;16.00;99.90;;;;;;5096369;28;20375;-74
2022/05/19 00:23:32;;;;;;;6.18;2.60;;;16.00;99.90;;;;;;5095945;28;20468;-75
2022/05/19 00:25:59;;;;;;;7.45;3.15;;;16.10;99.90;;;;;;5094736;28;20051;-75
2022/05/19 00:28:26;;;;;;;5.70;2.92;;;16.10;99.90;;;;;;5095581;28;20437;-75
2022/05/19 00:30:52;;;;;;;5.00;3.13;;;16.10;99.90;;;;;;5095631;28;20048;-74
2022/05/19 00:33:20;;;;;;;3.30;2.42;;;16.10;99.90;;;;;;5096871;28;20044;-74
2022/05/19 00:35:46;;;;;;;3.75;2.42;;;16.10;99.90;;;;;;5094982;28;20379;-74
2022/05/19 00:38:13;;;;;;;7.28;3.78;;;16.10;99.90;;;;;;5094826;28;20043;-75
2022/05/19 00:40:48;;;;;;;3.38;2.42;;;16.10;99.90;;;;;;5095993;28;20348;-75
2022/05/19 00:43:15;;;;;;;6.15;3.33;;;16.10;99.90;;;;;;5061635;28;20126;-75
2022/05/19 00:45:59;;;;;;;3.63;2.53;;;16.10;99.90;;;;;;5061619;28;20044;-75
2022/05/19 00:48:30;;;;;;;5.10;2.47;;;16.10;99.90;;;;;;5079278;28;20044;-75
2022/05/19 00:51:01;;;;;;;3.53;2.65;;;16.10;99.90;;;;;;5095390;28;20054;-75
2022/05/19 00:53:31;;;;;;;5.63;2.92;;;16.10;99.90;;;;;;5094910;28;20531;-75
2022/05/19 00:56:02;;;;;;;6.53;3.03;;;16.00;99.90;;;;;;5061154;28;20070;-75
2022/05/19 00:58:46;;;;;;;5.60;2.55;;;16.00;99.90;;;;;;5095062;28;20052;-74
2022/05/19 01:01:13;;;;;;;3.70;2.35;;;16.00;99.90;;;;;;5094555;28;20040;-74
2022/05/19 01:03:47;;;;;;;6.82;3.20;;;16.00;99.90;;;;;;5095159;28;20153;-74
2022/05/19 01:06:17;;;;;;;4.85;3.33;;;16.00;99.90;;;;;;5095237;28;20040;-74
2022/05/19 01:09:05;;;;;;;5.78;3.10;;;16.00;99.90;;;;;;5077446;28;20036;-73
2022/05/19 01:11:32;;;;;;;6.78;2.30;;;16.00;99.90;;;;;;5093964;28;20040;-75
2022/05/19 01:13:59;;;;;;;4.70;3.47;;;16.00;99.90;;;;;;5096112;28;20047;-76
2022/05/19 01:16:26;;;;;;;5.38;3.30;;;16.00;99.90;;;;;;5094126;28;20155;-75
2022/05/19 01:18:54;;;;;;;3.90;2.47;;;16.00;99.90;;;;;;5096226;28;20046;-75
2022/05/19 01:21:21;;;;;;;4.57;2.72;;;16.00;99.90;;;;;;5094024;28;20044;-74
2022/05/19 01:23:51;;;;;;;5.22;2.80;;;16.00;99.90;;;;;;5093588;28;20092;-74
2022/05/19 01:26:35;;;;;;;3.40;2.55;;;16.00;99.90;;;;;;5094708;28;20051;-74
2022/05/19 01:29:02;;;;;;;3.58;2.50;;;15.90;99.90;;;;;;5094023;28;20058;-74
2022/05/19 01:31:34;;;;;;;5.70;2.95;;;16.00;99.90;;;;;;5094715;28;20051;-74
2022/05/19 01:34:02;;;;;;;5.50;2.58;;;15.90;99.90;;;;;;5094881;28;20127;-74
2022/05/19 01:36:29;;;;;;;4.05;2.85;;;15.90;99.90;;;;;;5094879;28;20044;-74
2022/05/19 01:39:15;;;;;;;6.53;2.58;;;15.90;99.90;;;;;;5093772;28;20051;-75
2022/05/19 01:41:52;;;;;;;3.13;2.17;;;15.90;99.90;;;;;;5077843;28;20056;-75
2022/05/19 01:44:29;;;;;;;3.00;2.30;;;15.90;99.90;;;;;;5095567;28;20044;-75
2022/05/19 01:47:12;;;;;;;2.97;2.45;;;15.90;99.90;;;;;;5093298;28;20468;-75
2022/05/19 01:50:07;;;;;;;5.57;2.67;;;15.80;99.90;;;;;;5094151;28;20039;-75
2022/05/19 01:52:45;;;;;;;3.60;2.28;;;15.80;99.90;;;;;;5091600;28;20059;-75
2022/05/19 01:55:38;;;;;;;5.47;2.83;;;15.80;99.90;;;;;;5094398;28;20044;-75
2022/05/19 01:58:14;;;;;;;4.43;2.45;;;15.80;99.90;;;;;;5095298;28;20048;-75
2022/05/19 02:00:41;;;;;;;6.38;2.38;;;15.80;99.90;;;;;;5094403;28;20040;-74
2022/05/19 02:03:16;;;;;;;4.47;2.88;;;15.80;99.90;;;;;;5093022;28;20044;-74
2022/05/19 02:06:03;;;;;;;5.10;3.17;;;15.80;99.90;;;;;;5094134;28;20040;-75
2022/05/19 02:08:37;;;;;;;4.80;3.08;;;15.80;99.90;;;;;;5094131;28;20044;-74
2022/05/19 02:11:09;;;;;;;4.85;3.15;;;15.80;99.90;;;;;;5076910;28;20062;-74
2022/05/19 02:13:36;;;;;;;5.88;3.63;;;15.80;99.90;;;;;;5092716;28;20044;-74
2022/05/19 02:16:04;;;;;;;6.63;3.22;;;15.80;99.90;;;;;;5059421;28;20048;-74
2022/05/19 02:18:31;;;;;;;4.10;3.20;;;15.80;99.90;;;;;;5093748;28;20047;-74
2022/05/19 02:20:58;;;;;;;3.55;3.15;;;15.80;99.90;;;;;;5076168;28;20060;-74
2022/05/19 02:23:25;;;;;;;5.32;3.97;;;15.70;99.90;;;;;;5076067;28;20047;-74
2022/05/19 02:25:55;;;;;;;4.00;3.15;;;15.70;99.90;;;;;;5060218;28;20367;-74
2022/05/19 02:28:30;;;;;;;5.78;3.60;;;15.70;99.90;;;;;;5094030;28;20040;-75
2022/05/19 02:30:57;;;;;;;4.22;3.58;;;15.60;99.90;;;;;;5076663;28;20126;-75
2022/05/19 02:33:24;;;;;;;5.38;3.08;;;15.60;99.90;;;;;;5092502;28;20505;-74
2022/05/19 02:35:51;;;;;;;6.07;3.67;;;15.60;99.90;;;;;;5093935;28;20044;-74
2022/05/19 02:38:18;;;;;;;5.30;3.60;;;15.60;99.90;;;;;;5093819;28;20040;-75
2022/05/19 02:40:45;;;;;;;11.20;3.10;;;15.50;99.90;;;;;;5096376;28;20051;-75
2022/05/19 02:43:13;;;;;;;4.38;3.58;;;15.40;99.90;;;;;;5080510;28;20447;-75
2022/05/19 02:45:40;;;;;;;4.63;3.50;;;15.40;99.90;;;;;;5079193;28;20040;-75
2022/05/19 02:48:07;;;;;;;7.15;4.60;;;15.40;99.90;;;;;;5075673;28;20060;-75
2022/05/19 02:50:34;;;;;;;5.22;3.35;;;15.30;99.90;;;;;;5076489;28;20047;-74
2022/05/19 02:53:01;;;;;;;4.95;3.95;;;15.30;99.90;;;;;;5092736;28;20048;-74
2022/05/19 02:55:28;;;;;;;5.45;3.63;;;15.30;99.90;;;;;;5093717;28;20112;-75
2022/05/19 02:57:55;;;;;;;6.25;3.97;;;15.30;99.90;;;;;;5093352;28;20085;-74
2022/05/19 03:00:22;;;;;;;5.05;3.70;;;15.30;99.90;;;;;;5094231;28;20056;-74
2022/05/19 03:02:49;;;;;;;5.13;3.95;;;15.30;99.90;;;;;;5092375;28;20047;-75
2022/05/19 03:05:22;;;;;;;3.40;3.10;;;15.30;99.90;;;;;;5092133;28;20467;-75
2022/05/19 03:07:49;;;;;;;4.47;3.75;;;15.30;99.90;;;;;;5093337;28;20040;-74
2022/05/19 03:10:16;;;;;;;5.53;4.63;;;15.20;99.90;;;;;;5092462;28;20074;-75
2022/05/19 03:12:43;;;;;;;4.75;3.78;;;15.20;99.90;;;;;;5093265;28;20050;-75
2022/05/19 03:15:10;;;;;;;6.55;4.40;;;15.10;99.90;;;;;;5093198;28;20493;-75
2022/05/19 03:17:38;;;;;;;4.93;4.22;;;15.10;99.90;;;;;;5093203;28;20044;-75
2022/05/19 03:20:06;;;;;;;4.90;4.40;;;15.10;99.90;;;;;;5092302;28;20425;-75
2022/05/19 03:22:33;;;;;;;7.68;5.13;;;15.00;99.90;;;;;;5093947;28;20051;-75
2022/05/19 03:25:00;;;;;;;7.63;5.63;;;15.00;99.90;;;;;;5092112;28;20054;-75
2022/05/19 03:27:27;;;;;;;6.75;5.10;;;15.00;99.90;;;;;;5093075;28;20471;-75
2022/05/19 03:29:54;;;;;;;7.57;5.10;;;15.00;99.90;;;;;;5075169;28;20483;-75
2022/05/19 03:32:21;;;;;;;6.95;5.53;;;15.00;99.90;;;;;;5092689;28;20130;-75
2022/05/19 03:34:48;;;;;;;7.85;5.70;;;15.00;99.90;;;;;;5091874;28;20048;-74
2022/05/19 03:37:15;;;;;;;6.82;5.65;;;15.00;99.90;;;;;;5093140;28;20440;-74
2022/05/19 03:39:42;;;;;;;8.35;5.35;;;15.10;99.90;;;;;;5092701;28;20047;-74
2022/05/19 03:42:09;;;;;;;10.25;6.15;;;15.20;99.90;;;;;;5092972;28;20044;-74
2022/05/19 03:44:36;;;;;;;7.35;5.93;;;15.30;99.90;;;;;;5092783;28;20061;-74
2022/05/19 03:47:04;;;;;;;7.00;6.22;;;15.30;99.90;;;;;;5075046;28;20050;-74
2022/05/19 03:49:31;;;;;;;7.72;5.93;;;15.40;99.90;;;;;;5075058;28;20039;-74
2022/05/19 03:51:58;;;;;;;7.78;6.30;;;15.40;99.90;;;;;;5075595;28;20051;-74
2022/05/19 03:54:24;;;;;;;8.13;5.57;;;15.50;99.90;;;;;;5092845;28;20054;-74
2022/05/19 03:56:51;;;;;;;8.80;5.95;;;15.50;99.90;;;;;;5091565;28;20044;-74
2022/05/19 03:59:19;;;;;;;19.20;7.28;;;15.50;99.90;;;;;;5092805;28;20490;-74
2022/05/19 04:01:45;;;;;;;7.65;5.70;;;15.60;99.90;;;;;;5093093;28;20048;-74
2022/05/19 04:04:13;;;;;;;6.15;5.03;;;15.60;99.90;;;;;;5075663;28;20036;-74
2022/05/19 04:06:40;;;;;;;6.78;4.88;;;15.60;99.90;;;;;;5095985;28;20042;-74
2022/05/19 04:09:06;;;;;;;9.13;5.55;;;15.70;99.90;;;;;;5095478;28;20052;-74
2022/05/19 04:11:33;;;;;;;8.68;4.88;;;15.70;99.90;;;;;;5095427;28;20063;-74
2022/05/19 04:14:00;;;;;;;8.95;6.05;;;15.70;99.90;;;;;;5078655;28;20048;-74
2022/05/19 04:16:27;;;;;;;8.23;5.50;;;15.70;99.90;;;;;;5095006;28;20391;-74
2022/05/19 04:18:54;;;;;;;8.73;5.53;;;15.70;99.90;;;;;;5096360;28;20036;-74
2022/05/19 04:21:22;;;;;;;7.07;5.53;;;15.60;99.90;;;;;;5095154;28;20485;-74
2022/05/19 04:23:49;;;;;;;7.22;5.75;;;15.60;99.90;;;;;;5095760;28;20044;-74
2022/05/19 04:26:16;;;;;;;7.90;5.43;;;15.50;99.90;;;;;;5096198;28;20055;-74
2022/05/19 04:28:42;;;;;;;8.77;6.32;;;15.50;99.90;;;;;;5061804;28;20451;-74
2022/05/19 04:31:09;;;;;;;7.95;5.43;;;15.60;99.90;;;;;;5096517;28;20044;-74
2022/05/19 04:33:36;;;;;;;10.60;5.20;;;15.50;99.90;;;;;;5095809;28;20056;-74
2022/05/19 04:36:03;;;;;;;8.18;6.13;;;15.60;99.90;;;;;;5095443;28;20040;-74
2022/05/19 04:38:30;;;;;;;9.85;5.53;;;15.60;99.90;;;;;;5096141;28;20036;-74
2022/05/19 04:41:00;;;;;;;10.98;5.97;;;15.60;99.90;;;;;;5094834;28;20046;-74
2022/05/19 04:43:27;;;;;;;9.05;5.28;;;15.60;99.90;;;;;;5078070;28;20044;-74
2022/05/19 04:45:55;;;;;;;11.52;5.05;;;15.60;99.90;;;;;;5094732;28;20406;-74
2022/05/19 04:48:22;;;;;;;9.52;6.10;;;15.60;99.90;;;;;;5096889;28;20345;-74
2022/05/19 04:50:57;;;;;;;10.82;5.90;;;15.50;99.90;;;;;;5095135;28;20037;-74
2022/05/19 04:53:26;;;;;;;8.95;5.50;;;15.60;99.90;;;;;;5095495;28;20055;-75
2022/05/19 04:55:53;;;;;;;6.38;4.43;;;15.60;99.90;;;;;;5077495;28;20051;-74
2022/05/19 04:58:20;;;;;;;8.23;5.20;;;15.50;99.90;;;;;;5095265;28;20051;-74
2022/05/19 05:00:48;;;;;;;13.30;5.60;;;15.50;99.90;;;;;;5096045;28;20087;-74
2022/05/19 05:03:15;;;;;;;6.78;5.40;;;15.50;99.90;;;;;;5094268;28;20036;-74
2022/05/19 05:05:42;;;;;;;10.05;5.60;;;15.50;99.90;;;;;;5093993;28;20044;-74
2022/05/19 05:08:09;;;;;;;7.97;5.95;;;15.50;99.90;;;;;;5094927;28;20048;-74
2022/05/19 05:10:36;;;;;;;7.80;4.70;;;15.50;99.90;;;;;;5094249;28;20048;-74
2022/05/19 05:13:07;;;;;;;10.80;4.65;;;15.50;99.90;;;;;;5094226;28;20059;-74
2022/05/19 05:15:34;;;;;;;9.63;5.80;;;15.50;99.90;;;;;;5095282;28;20047;-74
2022/05/19 05:18:01;;;;;;;7.57;5.95;;;15.50;99.90;;;;;;5094852;28;20047;-74
2022/05/19 05:20:28;;;;;;;8.50;5.22;;;15.50;99.90;;;;;;5093684;28;20044;-74
2022/05/19 05:22:55;;;;;;;7.75;4.65;;;15.60;99.90;;;;;;5093606;28;20047;-74
2022/05/19 05:25:22;;;;;;;7.40;4.90;;;15.50;99.90;;;;;;5094108;28;20471;-75
2022/05/19 05:27:49;;;;;;;7.93;5.10;;;15.60;99.90;;;;;;5094978;28;20478;-74
2022/05/19 05:30:16;;;;;;;7.40;4.72;;;15.60;99.90;;;;;;5095418;28;20054;-73
2022/05/19 05:32:42;;;;;;;12.68;5.32;;;15.60;99.90;;;;;;5095078;28;20451;-73
2022/05/19 05:35:09;;;;;;;9.07;4.82;;;15.60;99.90;;;;;;5094438;28;20044;-73
2022/05/19 05:37:36;;;;;;;8.90;4.57;;;15.70;99.90;;;;;;5093295;28;20131;-73
2022/05/19 05:40:07;;;;;;;5.95;4.57;;;15.70;99.90;;;;;;5094776;28;20046;-73
2022/05/19 05:42:34;;;;;;;8.30;4.78;;;15.70;99.90;;;;;;5093734;28;20047;-73
2022/05/19 05:45:01;;;;;;;12.10;5.07;;;15.70;99.90;;;;;;5094565;28;20040;-74
2022/05/19 05:47:28;;;;;;;6.93;5.30;;;15.70;99.90;;;;;;5093141;28;20494;-71
2022/05/19 05:50:02;;;;;;;8.30;5.22;;;15.70;99.90;;;;;;5093218;28;20123;-69
2022/05/19 05:52:29;;;;;;;41.33;33.33;;;15.70;99.90;;;;;;5093315;28;20060;-67
2022/05/19 05:54:59;;;;;;;35.95;28.67;;;15.60;99.90;;;;;;5093425;28;20471;-69
2022/05/19 05:57:27;;;;;;;9.55;6.70;;;15.60;99.90;;;;;;5076658;28;20072;-72
2022/05/19 05:59:55;;;;;;;12.70;5.88;;;15.60;99.90;;;;;;5092935;28;20463;-72
2022/05/19 06:02:22;;;;;;;4.75;3.92;;;15.60;99.90;;;;;;5093937;28;20059;-71
2022/05/19 06:04:49;;;;;;;8.20;4.22;;;15.60;99.90;;;;;;5076997;28;20048;-70
2022/05/19 06:07:16;;;;;;;35.45;20.83;;;15.60;99.90;;;;;;5094845;28;20040;-71
2022/05/19 06:09:44;;;;;;;33.50;25.90;;;15.60;99.90;;;;;;5093791;28;20047;-71
2022/05/19 06:12:11;;;;;;;9.57;7.10;;;15.70;99.90;;;;;;5093969;28;20040;-70
2022/05/19 06:14:38;;;;;;;10.00;5.13;;;15.80;99.90;;;;;;5093886;28;20475;-69
2022/05/19 06:17:05;;;;;;;7.95;4.63;;;15.80;99.90;;;;;;5093815;28;20573;-72
2022/05/19 06:19:32;;;;;;;7.85;4.25;;;15.70;99.90;;;;;;5094569;28;20122;-68
2022/05/19 06:21:58;;;;;;;8.18;4.22;;;15.70;99.90;;;;;;5093300;28;20452;-69
2022/05/19 06:24:26;;;;;;;6.75;3.80;;;15.80;99.90;;;;;;5092725;28;20044;-69
2022/05/19 06:26:53;;;;;;;6.57;4.35;;;15.80;99.90;;;;;;5092423;28;20040;-70
2022/05/19 06:29:20;;;;;;;7.63;5.25;;;15.80;99.90;;;;;;5092639;28;20117;-71
2022/05/19 06:31:48;;;;;;;7.22;4.72;;;15.80;99.90;;;;;;5094224;28;20079;-71
2022/05/19 06:34:14;;;;;;;9.13;4.88;;;15.80;99.90;;;;;;5094181;28;20384;-71
2022/05/19 06:36:47;;;;;;;8.15;4.63;;;15.80;99.90;;;;;;5093463;28;20048;-71
2022/05/19 06:39:16;;;;;;;9.77;5.22;;;15.80;99.90;;;;;;5093391;28;20344;-71
2022/05/19 06:42:00;;;;;;;9.18;5.35;;;15.80;99.90;;;;;;5092762;28;20039;-73
2022/05/19 06:44:34;;;;;;;10.43;6.47;;;15.70;99.90;;;;;;5078673;28;20356;-72
2022/05/19 06:47:02;;;;;;;7.57;5.25;;;15.70;99.90;;;;;;5093073;28;20044;-74
2022/05/19 06:49:29;;;;;;;8.63;5.57;;;15.70;99.90;;;;;;5092959;28;20043;-71
2022/05/19 06:51:56;;;;;;;9.45;6.53;;;15.60;99.90;;;;;;5094146;28;20046;-72
2022/05/19 06:54:23;;;;;;;9.18;5.68;;;15.60;99.90;;;;;;5092172;28;20463;-75
2022/05/19 06:56:49;;;;;;;8.35;5.35;;;15.40;99.90;;;;;;5092533;28;20046;-73
2022/05/19 06:59:16;;;;;;;10.20;6.38;;;15.30;99.90;;;;;;5092862;28;20040;-73
2022/05/19 07:01:47;;;;;;;13.65;7.90;;;15.10;99.90;;;;;;5092514;28;20048;-71
2022/05/19 07:04:14;;;;;;;12.90;7.15;;;15.00;99.90;;;;;;5092347;28;20472;-73
2022/05/19 07:06:41;;;;;;;8.93;6.53;;;15.00;99.90;;;;;;5058708;28;20047;-73
2022/05/19 07:09:08;;;;;;;13.65;6.30;;;15.00;99.90;;;;;;5094302;28;20043;-74
2022/05/19 07:11:35;;;;;;;10.07;6.40;;;14.90;99.90;;;;;;5094009;28;20036;-74
2022/05/19 07:14:04;;;;;;;11.20;6.45;;;14.90;99.90;;;;;;5093137;28;20058;-75
2022/05/19 07:16:31;;;;;;;10.38;6.97;;;15.00;99.90;;;;;;5075709;28;20044;-71
2022/05/19 07:21:45;;;;;;;22.33;14.73;;;15.00;99.90;;;;;;5093399;28;20434;-74
2022/05/19 07:24:16;;;;;;;12.82;7.75;;;15.00;99.90;;;;;;5075824;28;20062;-78
2022/05/19 07:26:44;;;;;;;11.93;7.32;;;15.00;99.90;;;;;;5093346;28;20040;-71
2022/05/19 07:29:11;;;;;;;16.67;8.63;;;14.90;99.90;;;;;;5075129;28;20052;-75
2022/05/19 07:31:38;;;;;;;12.00;7.85;;;14.90;99.90;;;;;;5075283;28;20050;-68
2022/05/19 07:34:07;;;;;;;12.30;7.88;;;15.00;99.90;;;;;;5075185;28;20082;-72
2022/05/19 07:36:34;;;;;;;15.38;8.75;;;15.00;99.90;;;;;;5092810;28;20066;-74
2022/05/19 07:39:02;;;;;;;14.75;9.68;;;15.00;99.90;;;;;;5095136;28;20036;-78
2022/05/19 07:41:29;;;;;;;10.75;7.15;;;15.10;99.90;;;;;;5079768;28;20467;-78
2022/05/19 07:43:57;;;;;;;11.50;7.30;;;15.10;99.90;;;;;;5096589;28;20051;-73
2022/05/19 07:46:25;;;;;;;8.10;6.20;;;15.10;99.90;;;;;;5095831;28;20177;-76
2022/05/19 07:48:54;;;;;;;11.50;8.40;;;15.20;99.90;;;;;;5079140;28;20040;-72
2022/05/19 07:51:31;;;;;;;9.90;6.30;;;15.20;99.90;;;;;;5095454;28;20051;-73
2022/05/19 07:53:59;;;;;;;9.77;6.05;;;15.20;99.90;;;;;;5063859;28;20050;-70
2022/05/19 07:56:26;;;;;;;9.57;6.43;;;15.20;99.90;;;;;;5096572;28;20043;-70
2022/05/19 07:58:53;;;;;;;8.52;6.45;;;15.30;99.90;;;;;;5097275;28;20042;-70
2022/05/19 08:01:21;;;;;;;9.85;7.68;;;15.30;99.90;;;;;;5096449;28;20036;-71
2022/05/19 08:03:48;;;;;;;14.30;8.63;;;15.40;99.90;;;;;;5078982;28;20044;-71
2022/05/19 08:06:15;;;;;;;11.82;8.00;;;15.40;99.90;;;;;;5096428;28;20487;-73
2022/05/19 08:08:43;;;;;;;18.75;8.50;;;15.40;99.90;;;;;;5096649;28;20040;-74
2022/05/19 08:11:10;;;;;;;12.37;9.13;;;15.40;99.90;;;;;;5097432;28;20078;-76
2022/05/19 08:16:23;;;;;;;9.95;7.90;;;15.40;99.90;;;;;;5095727;28;20081;-66
2022/05/19 08:18:50;;;;;;;11.00;8.20;;;15.50;99.90;;;;;;5096167;28;20044;-64
2022/05/19 08:21:17;;;;;;;18.67;14.27;;;15.50;99.90;;;;;;5096201;28;20062;-64
2022/05/19 08:23:47;;;;;;;15.13;11.13;;;15.60;99.90;;;;;;5097265;28;20036;-79
2022/05/19 08:26:14;;;;;;;12.52;8.93;;;15.60;99.90;;;;;;5066977;28;20513;-77
2022/05/19 08:28:42;;;;;;;12.65;7.93;;;15.60;99.90;;;;;;5069241;28;20044;-77
2022/05/19 08:31:13;;;;;;;11.23;8.32;;;15.60;99.90;;;;;;5081593;28;20071;-77
2022/05/19 08:33:41;;;;;;;9.93;8.32;;;15.70;99.90;;;;;;5079143;28;20544;-77
2022/05/19 08:36:09;;;;;;;11.45;8.07;;;15.80;99.90;;;;;;5061852;28;20048;-77
2022/05/19 08:38:37;;;;;;;11.32;7.45;;;15.90;99.90;;;;;;5096774;28;20043;-77
2022/05/19 08:41:14;;;;;;;13.00;8.32;;;15.90;99.90;;;;;;5077935;28;20180;-77
2022/05/19 08:43:44;;;;;;;11.60;8.13;;;16.10;99.90;;;;;;5095419;28;20054;-77
2022/05/19 08:46:14;;;;;;;;;;;16.10;99.90;;;;;;5096435;28;20048;-77
2022/05/19 08:48:41;;;;;;;11.50;8.57;;;16.20;99.90;;;;;;5078066;28;19915;-77
2022/05/19 08:51:12;;;;;;;16.13;9.40;;;16.30;99.90;;;;;;5095010;28;20066;-77
2022/05/19 08:53:41;;;;;;;11.00;9.80;;;16.40;99.90;;;;;;5078154;28;20051;-77
2022/05/19 08:56:28;;;;;;;12.38;9.40;;;16.40;99.90;;;;;;5078149;28;20046;-77
2022/05/19 08:59:05;;;;;;;9.73;8.00;;;16.50;99.90;;;;;;5079010;28;20047;-77
2022/05/19 09:01:46;;;;;;;12.52;8.38;;;16.50;99.90;;;;;;5094199;28;20048;-77
2022/05/19 09:04:13;;;;;;;9.45;7.50;;;16.70;99.90;;;;;;5077792;28;20483;-77
2022/05/19 09:09:56;;;;;;;9.40;7.97;;;16.80;99.90;;;;;;5095165;28;20044;-77
2022/05/19 09:12:23;;;;;;;9.75;6.97;;;16.70;99.90;;;;;;5077317;28;20059;-77
2022/05/19 09:14:51;;;;;;;11.13;6.80;;;16.60;99.90;;;;;;5093823;28;20044;-77
2022/05/19 09:17:26;;;;;;;9.63;6.57;;;16.50;99.90;;;;;;5093832;28;20143;-77
2022/05/19 09:19:55;;;;;;;9.07;5.90;;;16.60;99.90;;;;;;5078346;28;20076;-77
2022/05/19 09:22:24;;;;;;;7.37;5.13;;;16.70;99.90;;;;;;5094301;28;20051;-77
2022/05/19 09:24:51;;;;;;;;;;;16.80;99.90;;;;;;5078682;28;20043;-77
2022/05/19 09:27:19;;;;;;;6.47;4.95;;;17.00;99.90;;;;;;5096387;28;19916;-78
2022/05/19 09:29:49;;;;;;;13.10;5.25;;;17.20;99.90;;;;;;5094903;28;20131;-77
2022/05/19 09:32:34;;;;;;;8.07;5.25;;;17.30;99.90;;;;;;5078142;28;20047;-77
2022/05/19 09:35:06;;;;;;;8.48;5.63;;;17.50;99.90;;;;;;5094547;28;20395;-77
2022/05/19 09:38:08;;;;;;;6.93;5.38;;;17.70;99.90;;;;;;5079567;28;20513;-77
2022/05/19 09:40:36;;;;;;;7.30;5.13;;;17.80;99.90;;;;;;5093778;28;20468;-77
2022/05/19 09:43:17;;;;;;;6.35;5.63;;;17.90;99.90;;;;;;5078992;28;20036;-76
2022/05/19 09:45:49;;;;;;;5.75;5.20;;;17.80;99.90;;;;;;5094374;28;20359;-76
2022/05/19 09:48:24;;;;;;;8.77;5.05;;;17.80;99.90;;;;;;5060706;28;20040;-76
2022/05/19 09:50:51;;;;;;;9.15;6.05;;;18.10;99.90;;;;;;5060992;28;20364;-76
2022/05/19 09:53:25;;;;;;;8.07;6.50;;;18.30;99.90;;;;;;5094369;28;20036;-76
2022/05/19 09:55:57;;;;;;;7.10;4.68;;;18.60;99.90;;;;;;5094275;28;20039;-77
2022/05/19 09:58:25;;;;;;;6.15;4.50;;;18.70;99.90;;;;;;5095393;28;20391;-77
2022/05/19 10:01:02;;;;;;;5.40;3.70;;;18.80;99.90;;;;;;5093080;28;20051;-78
2022/05/19 10:03:43;;;;;;;5.60;3.90;;;19.00;99.90;;;;;;5092999;28;20127;-66
2022/05/19 10:06:20;;;;;;;4.72;2.90;;;19.10;99.90;;;;;;5077141;28;20094;-66
2022/05/19 10:08:47;;;;;;;7.57;3.72;;;19.00;99.90;;;;;;5077234;28;20126;-67
2022/05/19 10:11:14;;;;;;;5.75;3.45;;;18.80;99.90;;;;;;5094407;28;20051;-65
2022/05/19 10:14:08;;;;;;;5.07;3.65;;;18.70;99.90;;;;;;5094480;28;20043;-65
2022/05/19 10:16:53;;;;;;;4.80;3.60;;;18.60;99.90;;;;;;5073757;28;20052;-65
2022/05/19 10:19:37;;;;;;;9.63;3.88;;;18.50;99.90;;;;;;5094107;28;20044;-65
2022/05/19 10:22:22;;;;;;;6.10;3.50;;;18.40;99.90;;;;;;5094806;28;20055;-65
2022/05/19 10:25:12;;;;;;;10.68;4.28;;;18.40;99.90;;;;;;5094569;28;20107;-65
2022/05/19 10:33:51;;;;;;;6.68;3.28;;;18.40;99.90;;;;;;5094768;28;20127;-64
2022/05/19 10:36:49;;;;;;;12.80;4.28;;;18.70;99.90;;;;;;5093696;28;20050;-66
2022/05/19 10:39:30;;;;;;;43.65;35.95;;;18.90;99.90;;;;;;5094729;28;20446;-64
2022/05/19 10:41:57;;;;;;;13.30;10.40;;;19.10;99.90;;;;;;5092700;28;20135;-67
2022/05/19 10:45:17;;;;;;;7.70;4.70;;;19.20;99.90;;;;;;5092652;28;20378;-61
2022/05/19 10:48:06;;;;;;;7.47;3.40;;;19.40;99.90;;;;;;5081724;28;20154;-61
2022/05/19 10:51:12;;;;;;;5.00;2.72;;;19.50;99.90;;;;;;5093419;28;20044;-65
2022/05/19 10:53:54;;;;;;;8.65;2.65;;;19.50;99.90;;;;;;5086118;28;20498;-64
2022/05/19 10:56:45;;;;;;;6.13;2.35;;;19.40;99.90;;;;;;5094471;28;20127;-67
2022/05/19 10:59:18;;;;;;;4.43;2.42;;;19.30;99.90;;;;;;5094253;28;20046;-68
2022/05/19 11:02:13;;;;;;;6.25;3.10;;;19.30;99.90;;;;;;5093213;28;20068;-70
2022/05/19 11:04:56;;;;;;;4.47;1.98;;;19.40;99.90;;;;;;5094378;28;20131;-68
2022/05/19 11:07:50;;;;;;;6.53;2.25;;;19.50;99.90;;;;;;5093038;28;20040;-71
2022/05/19 11:10:51;;;;;;;4.10;2.10;;;19.60;99.90;;;;;;5094038;28;20040;-69
2022/05/19 11:13:38;;;;;;;7.72;2.25;;;19.50;99.90;;;;;;5094414;28;20530;-74
2022/05/19 11:16:05;;;;;;;5.60;2.20;;;19.30;99.90;;;;;;5064381;28;20044;-69
2022/05/19 11:18:54;;;;;;;4.65;2.03;;;19.30;99.90;;;;;;5098420;28;20048;-69
2022/05/19 11:21:30;;;;;;;6.97;2.45;;;19.50;99.90;;;;;;5097099;28;20131;-68
2022/05/19 11:24:08;;;;;;;7.10;2.08;;;19.70;99.90;;;;;;5080829;28;20333;-68
2022/05/19 11:26:51;;;;;;;4.95;2.42;;;19.70;99.90;;;;;;5080030;28;20040;-68
2022/05/19 11:29:43;;;;;;;6.35;2.75;;;19.70;99.90;;;;;;5097532;28;20430;-72
2022/05/19 11:32:16;;;;;;;5.63;2.28;;;19.60;99.90;;;;;;5096691;28;20047;-73
2022/05/19 11:35:01;;;;;;;4.60;2.30;;;19.70;99.90;;;;;;5095784;28;20048;-72
2022/05/19 11:37:46;;;;;;;5.07;2.17;;;19.60;99.90;;;;;;5097151;28;20036;-74
2022/05/19 11:40:17;;;;;;;6.50;2.40;;;19.60;99.90;;;;;;5080191;28;20059;-72
2022/05/19 11:43:08;;;;;;;6.95;2.65;;;19.50;99.90;;;;;;5096463;28;20050;-71
2022/05/19 11:45:41;;;;;;;6.45;2.80;;;19.40;99.90;;;;;;5079332;28;20050;-71
2022/05/19 11:57:37;;;;;;;7.32;2.58;;;19.50;99.90;;;;;;5097666;28;20051;-72
2022/05/19 12:00:05;;;;;;;8.15;2.95;;;19.70;99.90;;;;;;5096491;28;20040;-73
2022/05/19 12:02:49;;;;;;;4.82;2.13;;;20.00;99.90;;;;;;5078651;28;20479;-74
2022/05/19 12:05:50;;;;;;;4.28;2.50;;;20.10;99.90;;;;;;5096823;28;20044;-73
2022/05/19 12:08:27;;;;;;;5.75;2.20;;;20.50;99.90;;;;;;5096381;28;20043;-72
2022/05/19 12:11:08;;;;;;;7.10;2.72;;;20.60;99.90;;;;;;5097409;28;20047;-72
2022/05/19 12:13:35;;;;;;;5.15;3.08;;;20.70;99.90;;;;;;5081095;28;20040;-73
2022/05/19 12:16:08;;;;;;;6.40;2.60;;;20.70;99.30;;;;;;5061836;28;20047;-73
2022/05/19 12:18:37;;;;;;;3.70;2.25;;;20.60;98.10;;;;;;5078644;28;20420;-73
2022/05/19 12:21:04;;;;;;;6.30;2.05;;;20.40;95.00;;;;;;5095955;28;20044;-73
2022/05/19 12:23:39;;;;;;;6.40;2.45;;;20.20;97.00;;;;;;5096360;28;20043;-73
2022/05/19 12:26:11;;;;;;;6.07;2.50;;;20.20;97.50;;;;;;5093886;28;20044;-64
2022/05/19 12:28:51;;;;;;;8.80;2.30;;;20.20;98.50;;;;;;5094857;28;20040;-63
2022/05/19 12:34:25;;;;;;;5.43;2.75;;;20.50;99.90;;;;;;5080922;28;20073;-64
2022/05/19 12:36:53;;;;;;;7.63;2.00;;;20.50;97.60;;;;;;5094795;28;20044;-64
2022/05/19 12:39:20;;;;;;;3.45;1.65;;;20.50;97.10;;;;;;5077954;28;20044;-63
2022/05/19 12:41:50;;;;;;;6.15;2.13;;;20.50;95.00;;;;;;5095892;28;20127;-65
2022/05/19 12:44:35;;;;;;;3.47;1.95;;;20.50;97.20;;;;;;5095570;28;20048;-64
2022/05/19 12:47:21;;;;;;;4.97;1.90;;;20.80;96.10;;;;;;5095863;28;20044;-64
2022/05/19 12:50:10;;;;;;;4.15;2.20;;;20.90;92.80;;;;;;5096677;28;20142;-65
2022/05/19 12:53:23;;;;;;;5.07;2.20;;;21.00;91.90;;;;;;5095600;28;20570;-64
2022/05/19 12:55:54;;;;;;;3.15;1.77;;;21.10;90.30;;;;;;5076268;28;20510;-65
2022/05/19 12:58:34;;;;;;;7.18;2.78;;;21.30;85.50;;;;;;5096246;28;20044;-64
2022/05/19 13:01:23;;;;;;;4.05;1.73;;;21.40;83.30;;;;;;5095276;28;20039;-64
2022/05/19 13:04:15;;;;;;;4.90;1.50;;;21.40;77.70;;;;;;5094363;28;20089;-64
2022/05/19 13:06:50;;;;;;;4.97;1.42;;;21.30;78.90;;;;;;5084500;28;20463;-64
2022/05/19 13:09:21;;;;;;;5.85;1.50;;;21.20;73.00;;;;;;5078948;28;20048;-65
2022/05/19 13:11:53;;;;;;;4.28;1.63;;;21.10;73.10;;;;;;5093998;28;20054;-66
2022/05/19 13:14:26;;;;;;;5.85;1.70;;;21.20;77.30;;;;;;5094792;28;20044;-65
2022/05/19 13:16:53;;;;;;;9.48;1.75;;;21.20;74.60;;;;;;5094094;28;20468;-65
2022/05/19 13:19:23;;;;;;;4.10;1.25;;;21.30;70.60;;;;;;5094330;28;20383;-65
2022/05/19 13:22:07;;;;;;;5.00;1.38;;;21.20;73.30;;;;;;5094299;28;20044;-65
2022/05/19 13:24:35;;;;;;;3.72;1.70;;;21.30;71.90;;;;;;5094874;28;20524;-65
2022/05/19 13:32:39;;;;;;;3.88;1.30;;;21.40;71.30;;;;;;5094705;28;20036;-66
2022/05/19 13:35:14;;;;;;;4.88;1.40;;;21.40;69.90;;;;;;5095471;28;20090;-65
2022/05/19 13:37:43;;;;;;;4.05;1.77;;;21.40;65.70;;;;;;5093037;28;20043;-67
2022/05/19 13:40:27;;;;;;;1.45;1.05;;;21.30;67.00;;;;;;5095713;28;20040;-65
2022/05/19 13:43:30;;;;;;;2.85;1.17;;;21.20;65.30;;;;;;5094529;28;20078;-66